Time;durP1;ratioP1;P1;durP2;ratioP2;P2;SDS_P1;SDS_P2;PMS_P1;PMS_P2;Temp;Humidity;BMP_temperature;BMP_pressure;BME280_temperature;BME280_humidity;BME280_pressure;Samples;Min_cycle;Max_cycle;Signal;HPM_P1;HPM_P2
2023/05/23 00:01:36;;;;;;;13.80;6.95;;;;;;;16.73;100.00;101745.75;5000469;28;20078;-70
2023/05/23 00:04:03;;;;;;;14.38;7.43;;;;;;;16.77;100.00;101751.56;5000794;28;20054;-70
2023/05/23 00:06:30;;;;;;;10.88;6.78;;;;;;;16.74;100.00;101743.94;5001424;28;20060;-70
2023/05/23 00:08:57;;;;;;;11.40;7.28;;;;;;;16.71;100.00;101744.28;5005649;28;20074;-70
2023/05/23 00:11:25;;;;;;;11.25;6.40;;;;;;;16.72;100.00;101741.47;5012120;28;20120;-70
2023/05/23 00:13:52;;;;;;;10.57;6.20;;;;;;;16.73;100.00;101742.28;5007861;28;20050;-70
2023/05/23 00:16:20;;;;;;;12.43;7.78;;;;;;;16.74;100.00;101743.94;5007338;28;20137;-70
2023/05/23 00:18:49;;;;;;;12.30;7.57;;;;;;;16.71;100.00;101737.16;4996345;28;20457;-70
2023/05/23 00:21:19;;;;;;;12.77;7.47;;;;;;;16.61;100.00;101737.31;5008205;28;20050;-70
2023/05/23 00:23:45;;;;;;;14.60;7.60;;;;;;;16.61;100.00;101739.97;4992788;28;20129;-70
2023/05/23 00:26:12;;;;;;;11.50;7.07;;;;;;;16.63;100.00;101745.09;5006795;28;20484;-70
2023/05/23 00:28:38;;;;;;;14.02;7.10;;;;;;;16.57;100.00;101740.47;4985904;28;20065;-71
2023/05/23 00:31:05;;;;;;;15.00;7.70;;;;;;;16.55;100.00;101740.63;4968127;28;20078;-70
2023/05/23 00:33:33;;;;;;;16.40;7.43;;;;;;;16.50;100.00;101742.91;4989803;28;20061;-70
2023/05/23 00:35:59;;;;;;;11.57;7.07;;;;;;;16.60;100.00;101745.41;4998495;28;20146;-70
2023/05/23 00:38:27;;;;;;;11.13;6.07;;;;;;;16.55;100.00;101751.22;5001503;28;20056;-70
2023/05/23 00:40:53;;;;;;;14.80;7.63;;;;;;;16.57;100.00;101748.41;5002088;28;20410;-70
2023/05/23 00:43:21;;;;;;;12.13;7.07;;;;;;;16.55;100.00;101755.69;5006215;28;20137;-70
2023/05/23 00:45:48;;;;;;;13.10;6.57;;;;;;;16.53;100.00;101761.16;5004778;28;20097;-70
2023/05/23 00:48:15;;;;;;;15.75;7.35;;;;;;;16.53;100.00;101753.19;4999237;28;20578;-70
2023/05/23 00:50:41;;;;;;;13.82;7.72;;;;;;;16.43;100.00;101762.28;5003861;28;20580;-70
2023/05/23 00:53:08;;;;;;;16.50;8.50;;;;;;;16.28;100.00;101770.84;4997468;28;20054;-70
2023/05/23 00:55:34;;;;;;;14.48;8.57;;;;;;;16.27;100.00;101765.69;4989855;28;20046;-70
2023/05/23 00:58:01;;;;;;;15.02;9.00;;;;;;;16.12;100.00;101771.63;5003583;28;20064;-71
2023/05/23 01:00:27;;;;;;;14.88;9.05;;;;;;;16.00;100.00;101762.31;5009452;28;20144;-70
2023/05/23 01:02:55;;;;;;;15.00;8.05;;;;;;;16.01;100.00;101769.25;4989996;28;20053;-70
2023/05/23 01:05:23;;;;;;;13.88;6.97;;;;;;;16.03;100.00;101767.25;4996056;28;20170;-71
2023/05/23 01:07:50;;;;;;;17.88;8.55;;;;;;;16.02;100.00;101766.44;4979659;28;20050;-70
2023/05/23 01:10:20;;;;;;;15.20;7.75;;;;;;;16.00;100.00;101772.91;5000583;28;20734;-71
2023/05/23 01:13:28;;;;;;;14.60;7.45;;;;;;;16.03;100.00;101777.84;4998804;28;20052;-71
2023/05/23 01:16:01;;;;;;;15.30;7.93;;;;;;;16.01;100.00;101770.09;4999653;28;20690;-70
2023/05/23 01:18:45;;;;;;;15.88;7.78;;;;;;;15.98;100.00;101777.53;5001857;28;20053;-70
2023/05/23 01:21:14;;;;;;;12.20;6.65;;;;;;;15.95;100.00;101773.34;4993534;28;20061;-71
2023/05/23 01:23:56;;;;;;;13.13;7.47;;;;;;;15.96;100.00;101776.84;5006426;28;20049;-71
2023/05/23 01:26:59;;;;;;;12.48;7.57;;;;;;;15.99;100.00;101781.81;5001018;28;20140;-70
2023/05/23 01:29:31;;;;;;;15.60;7.68;;;;;;;16.01;100.00;101785.13;5000954;28;20054;-71
2023/05/23 01:31:58;;;;;;;12.55;7.38;;;;;;;16.01;100.00;101790.41;4996110;28;20049;-71
2023/05/23 01:34:25;;;;;;;11.77;6.88;;;;;;;15.93;100.00;101785.09;5001138;28;20060;-71
2023/05/23 01:36:55;;;;;;;14.45;6.90;;;;;;;15.94;100.00;101797.34;5006135;28;20064;-70
2023/05/23 01:39:22;;;;;;;9.38;6.20;;;;;;;15.90;100.00;101786.25;4997684;28;20053;-70
2023/05/23 01:41:50;;;;;;;13.18;7.50;;;;;;;15.92;100.00;101786.09;5006094;28;20053;-70
2023/05/23 01:44:16;;;;;;;10.38;6.38;;;;;;;15.86;100.00;101779.63;4999253;28;20054;-71
2023/05/23 01:46:47;;;;;;;13.18;6.47;;;;;;;15.90;100.00;101783.59;5002521;28;20050;-71
2023/05/23 01:49:15;;;;;;;13.20;6.50;;;;;;;15.88;100.00;101782.94;5011006;28;20049;-70
2023/05/23 01:51:42;;;;;;;14.40;6.82;;;;;;;15.90;100.00;101786.25;5006684;28;20068;-71
2023/05/23 01:54:09;;;;;;;11.48;6.25;;;;;;;15.91;100.00;101784.41;5006043;28;20050;-70
2023/05/23 01:56:36;;;;;;;11.57;6.53;;;;;;;15.90;100.00;101780.13;5000463;28;20390;-70
2023/05/23 01:59:03;;;;;;;13.90;7.10;;;;;;;15.86;100.00;101792.00;5004895;28;20053;-71
2023/05/23 02:01:30;;;;;;;11.77;6.35;;;;;;;15.88;100.00;101795.34;4985856;28;20139;-71
2023/05/23 02:03:56;;;;;;;15.63;7.70;;;;;;;15.85;100.00;101796.47;4993059;28;20571;-70
2023/05/23 02:06:23;;;;;;;11.55;6.63;;;;;;;15.81;100.00;101797.75;5015628;28;20085;-71
2023/05/23 02:08:50;;;;;;;12.43;6.30;;;;;;;15.79;100.00;101805.84;5001251;28;20081;-70
2023/05/23 02:11:16;;;;;;;8.77;6.15;;;;;;;15.83;100.00;101809.00;5005095;28;20054;-71
2023/05/23 02:13:42;;;;;;;11.57;7.00;;;;;;;15.82;100.00;101810.03;4995354;28;20108;-70
2023/05/23 02:16:10;;;;;;;10.52;6.10;;;;;;;15.89;100.00;101816.31;4984291;28;20081;-71
2023/05/23 02:18:37;;;;;;;13.55;6.63;;;;;;;15.80;100.00;101810.16;4999077;28;20527;-71
2023/05/23 02:21:04;;;;;;;10.98;6.47;;;;;;;15.81;100.00;101803.06;5005146;28;20112;-70
2023/05/23 02:23:31;;;;;;;12.23;6.30;;;;;;;15.80;100.00;101804.88;5000400;28;20057;-70
2023/05/23 02:25:57;;;;;;;14.30;7.07;;;;;;;15.78;100.00;101808.69;5002795;28;20081;-70
2023/05/23 02:28:24;;;;;;;10.30;6.55;;;;;;;15.77;100.00;101812.28;5001259;28;20104;-70
2023/05/23 02:30:50;;;;;;;9.80;6.25;;;;;;;15.74;100.00;101812.59;4993852;28;20041;-71
2023/05/23 02:33:17;;;;;;;11.20;6.80;;;;;;;15.66;100.00;101812.50;4998626;28;20073;-70
2023/05/23 02:35:43;;;;;;;10.18;6.85;;;;;;;15.68;100.00;101815.84;5000655;28;20050;-68
2023/05/23 02:38:10;;;;;;;12.50;6.68;;;;;;;15.63;100.00;101824.25;4988346;28;20062;-68
2023/05/23 02:40:36;;;;;;;14.88;7.38;;;;;;;15.58;100.00;101824.72;5000819;28;20113;-68
2023/05/23 02:43:03;;;;;;;15.13;7.03;;;;;;;15.58;100.00;101826.50;4999267;28;20052;-68
2023/05/23 02:45:29;;;;;;;15.07;6.97;;;;;;;15.61;100.00;101826.22;5003001;28;20081;-69
2023/05/23 02:47:55;;;;;;;16.65;6.97;;;;;;;15.60;100.00;101829.84;4982576;28;20058;-69
2023/05/23 02:50:22;;;;;;;13.00;7.63;;;;;;;15.63;100.00;101830.34;4988331;28;20877;-68
2023/05/23 02:52:49;;;;;;;13.75;6.68;;;;;;;15.65;100.00;101832.84;4999968;28;20061;-70
2023/05/23 02:55:16;;;;;;;15.52;7.00;;;;;;;15.60;100.00;101830.69;5002211;28;20739;-68
2023/05/23 02:57:42;;;;;;;14.40;6.78;;;;;;;15.65;100.00;101839.97;4995165;28;20072;-69
2023/05/23 03:00:10;;;;;;;16.42;7.07;;;;;;;15.66;100.00;101831.03;5005116;28;20066;-69
2023/05/23 03:02:37;;;;;;;16.15;7.88;;;;;;;15.61;100.00;101829.69;4990021;28;20050;-69
2023/05/23 03:05:05;;;;;;;11.80;5.82;;;;;;;15.74;100.00;101837.25;4999142;28;20112;-67
2023/05/23 03:07:32;;;;;;;14.18;7.10;;;;;;;15.71;100.00;101829.59;5003293;28;20045;-71
2023/05/23 03:09:59;;;;;;;20.73;6.90;;;;;;;15.63;100.00;101829.53;4996479;28;20505;-68
2023/05/23 03:12:29;;;;;;;15.07;6.95;;;;;;;15.69;100.00;101828.09;5000561;28;20156;-69
2023/05/23 03:14:55;;;;;;;11.35;6.15;;;;;;;15.62;100.00;101834.00;5000472;28;20421;-70
2023/05/23 03:17:24;;;;;;;15.00;6.97;;;;;;;15.50;100.00;101835.22;5001025;28;20064;-68
2023/05/23 03:19:50;;;;;;;;;;;;;;;15.50;100.00;101831.75;5000001;28;20537;-70
2023/05/23 03:22:17;;;;;;;8.65;4.95;;;;;;;15.46;100.00;101833.03;4999380;28;19932;-68
2023/05/23 03:24:43;;;;;;;14.15;5.80;;;;;;;15.47;100.00;101835.53;4999401;28;20050;-68
2023/05/23 03:27:09;;;;;;;11.98;5.70;;;;;;;15.46;100.00;101846.25;4998838;28;20064;-68
2023/05/23 03:29:36;;;;;;;11.90;6.10;;;;;;;15.44;100.00;101851.69;5005810;28;20141;-68
2023/05/23 03:32:03;;;;;;;12.90;5.53;;;;;;;15.41;100.00;101852.03;5001815;28;20437;-70
2023/05/23 03:34:31;;;;;;;9.85;4.95;;;;;;;15.40;100.00;101845.88;5004019;28;20057;-70
2023/05/23 03:36:58;;;;;;;10.65;4.55;;;;;;;15.41;100.00;101852.84;4997470;28;20707;-68
2023/05/23 03:39:25;;;;;;;9.88;4.97;;;;;;;15.34;100.00;101835.91;4993302;28;20423;-68
2023/05/23 03:41:51;;;;;;;8.65;4.20;;;;;;;15.38;100.00;101849.66;5009510;28;20060;-68
2023/05/23 03:44:17;;;;;;;8.98;4.75;;;;;;;15.36;100.00;101847.16;5002795;28;20049;-69
2023/05/23 03:46:44;;;;;;;11.13;4.55;;;;;;;15.39;100.00;101849.53;5013308;28;20133;-67
2023/05/23 03:49:10;;;;;;;8.52;4.40;;;;;;;15.42;100.00;101845.72;5007253;28;20093;-68
2023/05/23 03:51:37;;;;;;;10.15;5.13;;;;;;;15.40;100.00;101843.22;5009174;28;20053;-67
2023/05/23 03:54:03;;;;;;;9.02;5.15;;;;;;;15.47;100.00;101853.22;5008905;28;20070;-67
2023/05/23 03:56:30;;;;;;;8.82;5.03;;;;;;;15.39;100.00;101865.38;4990736;28;20053;-68
2023/05/23 03:58:56;;;;;;;12.05;5.18;;;;;;;15.41;100.00;101850.19;5014830;28;20053;-67
2023/05/23 04:01:22;;;;;;;7.82;4.80;;;;;;;15.50;100.00;101855.53;5027161;28;20133;-69
2023/05/23 04:03:50;;;;;;;12.43;5.85;;;;;;;15.49;100.00;101849.44;5020781;28;20119;-68
2023/05/23 04:06:17;;;;;;;9.38;5.35;;;;;;;15.53;100.00;101863.19;5002357;28;20591;-69
2023/05/23 04:08:44;;;;;;;11.77;5.45;;;;;;;15.51;100.00;101860.69;5010309;28;20057;-68
2023/05/23 04:11:10;;;;;;;9.40;5.28;;;;;;;15.52;100.00;101864.16;5007697;28;20078;-68
2023/05/23 04:13:37;;;;;;;10.68;5.50;;;;;;;15.52;100.00;101859.69;5007705;28;20515;-68
2023/05/23 04:16:04;;;;;;;9.73;5.28;;;;;;;15.60;100.00;101867.72;5012101;28;20146;-68
2023/05/23 04:18:37;;;;;;;11.43;5.90;;;;;;;15.55;100.00;101872.63;5002571;28;21032;-69
2023/05/23 04:21:04;;;;;;;12.50;6.05;;;;;;;15.58;100.00;101869.69;5010658;28;20279;-68
2023/05/23 04:23:31;;;;;;;8.10;5.15;;;;;;;15.53;100.00;101861.38;5006938;28;20436;-69
2023/05/23 04:25:58;;;;;;;11.18;5.63;;;;;;;15.59;100.00;101871.31;5011283;28;20131;-68
2023/05/23 04:28:26;;;;;;;11.32;5.75;;;;;;;15.62;100.00;101878.09;4994097;28;20060;-68
2023/05/23 04:30:53;;;;;;;;;;;;;;;15.62;100.00;101884.25;5025676;28;20548;-68
2023/05/23 04:33:20;;;;;;;12.68;5.70;;;;;;;15.67;100.00;101882.94;5005519;28;19947;-69
2023/05/23 04:35:48;;;;;;;12.35;5.47;;;;;;;15.60;100.00;101891.50;4997276;28;20054;-69
2023/05/23 04:38:14;;;;;;;12.48;5.70;;;;;;;15.60;100.00;101891.50;5006261;28;20060;-68
2023/05/23 04:40:41;;;;;;;13.18;5.85;;;;;;;15.57;100.00;101897.09;4988747;28;20104;-68
2023/05/23 04:43:08;;;;;;;11.85;5.93;;;;;;;15.51;100.00;101887.13;5010795;28;20085;-68
2023/05/23 04:45:36;;;;;;;12.02;5.45;;;;;;;15.58;100.00;101892.63;5001752;28;20534;-69
2023/05/23 04:48:03;;;;;;;13.60;5.57;;;;;;;15.61;100.00;101902.91;4998111;28;20064;-68
2023/05/23 04:50:31;;;;;;;13.52;5.57;;;;;;;15.64;100.00;101899.94;5010682;28;20136;-69
2023/05/23 04:52:58;;;;;;;10.15;5.35;;;;;;;15.70;100.00;101896.72;5003307;28;20046;-68
2023/05/23 04:55:25;;;;;;;12.70;5.72;;;;;;;15.67;100.00;101909.41;5008037;28;20062;-69
2023/05/23 04:57:51;;;;;;;13.80;5.82;;;;;;;15.66;100.00;101913.88;4985515;28;20045;-69
2023/05/23 05:00:19;;;;;;;15.23;5.85;;;;;;;15.59;100.00;101924.22;5002875;28;20054;-68
2023/05/23 05:02:45;;;;;;;13.82;6.18;;;;;;;15.58;100.00;101927.00;5003227;28;20049;-68
2023/05/23 05:05:12;;;;;;;15.00;6.43;;;;;;;15.51;100.00;101921.50;4991899;28;20062;-69
2023/05/23 05:07:39;;;;;;;15.15;7.13;;;;;;;15.48;100.00;101926.25;4989848;28;20112;-68
2023/05/23 05:10:06;;;;;;;14.40;6.28;;;;;;;15.47;100.00;101928.09;4998086;28;20058;-68
2023/05/23 05:12:33;;;;;;;13.68;5.88;;;;;;;15.36;100.00;101933.59;5025217;28;20057;-68
2023/05/23 05:14:59;;;;;;;15.82;6.45;;;;;;;15.37;100.00;101932.63;4998378;28;20050;-69
2023/05/23 05:17:26;;;;;;;14.02;6.70;;;;;;;15.34;100.00;101928.44;5024020;28;20049;-68
2023/05/23 05:19:53;;;;;;;16.27;6.63;;;;;;;15.37;100.00;101937.91;5008023;28;20513;-69
2023/05/23 05:22:19;;;;;;;17.80;7.07;;;;;;;15.32;100.00;101942.81;5002427;28;20088;-68
2023/05/23 05:24:46;;;;;;;15.90;6.53;;;;;;;15.28;100.00;101952.03;5007465;28;20085;-68
2023/05/23 05:27:12;;;;;;;19.50;7.07;;;;;;;15.22;100.00;101954.25;5001464;28;20076;-71
2023/05/23 05:29:39;;;;;;;11.23;5.63;;;;;;;15.18;100.00;101955.53;4987227;28;20057;-68
2023/05/23 05:32:07;;;;;;;15.95;6.07;;;;;;;15.04;100.00;101961.34;5002750;28;20085;-68
2023/05/23 05:34:34;;;;;;;15.73;5.95;;;;;;;14.85;100.00;101958.81;5011987;28;20189;-68
2023/05/23 05:37:01;;;;;;;21.15;6.53;;;;;;;14.78;100.00;101956.75;5014075;28;20046;-69
2023/05/23 05:39:27;;;;;;;15.07;5.80;;;;;;;14.83;100.00;101972.16;5004682;28;20057;-69
2023/05/23 05:41:54;;;;;;;15.15;5.43;;;;;;;14.83;100.00;101965.06;4984472;28;20100;-68
2023/05/23 05:44:21;;;;;;;13.63;5.63;;;;;;;14.94;100.00;101971.16;5003199;28;20064;-69
2023/05/23 05:46:47;;;;;;;17.88;6.10;;;;;;;14.89;100.00;101973.38;5003788;28;20128;-68
2023/05/23 05:49:14;;;;;;;15.07;5.82;;;;;;;14.92;100.00;101981.03;5004214;28;20049;-68
2023/05/23 05:51:40;;;;;;;16.63;5.88;;;;;;;14.98;100.00;101977.78;4980035;28;20069;-69
2023/05/23 05:54:07;;;;;;;13.77;5.38;;;;;;;14.99;100.00;101979.44;4986689;28;20060;-70
2023/05/23 05:56:34;;;;;;;14.60;4.88;;;;;;;15.07;100.00;101987.47;4997702;28;20100;-70
2023/05/23 05:59:00;;;;;;;16.38;4.70;;;;;;;15.11;100.00;101988.00;5009089;28;20054;-68
2023/05/23 06:01:27;;;;;;;19.25;5.47;;;;;;;15.12;100.00;101993.16;5005269;28;20052;-69
2023/05/23 06:03:53;;;;;;;12.82;4.82;;;;;;;15.06;100.00;101996.38;5041431;28;20053;-70
2023/05/23 06:06:20;;;;;;;16.05;5.15;;;;;;;15.09;100.00;101993.44;5026468;28;20064;-69
2023/05/23 06:08:47;;;;;;;16.33;5.30;;;;;;;15.02;100.00;101998.47;5011932;28;20057;-69
2023/05/23 06:11:13;;;;;;;10.65;4.43;;;;;;;15.05;100.00;101999.97;5010748;28;20050;-68
2023/05/23 06:13:40;;;;;;;11.20;4.50;;;;;;;14.99;100.00;102014.66;4987294;28;20085;-68
2023/05/23 06:16:06;;;;;;;13.98;4.65;;;;;;;15.02;100.00;102014.34;4992758;28;20058;-67
2023/05/23 06:18:33;;;;;;;16.48;4.97;;;;;;;14.88;100.00;102017.47;5004422;28;20788;-67
2023/05/23 06:20:59;;;;;;;12.70;4.60;;;;;;;14.83;100.00;102007.31;5015407;28;20452;-68
2023/05/23 06:23:26;;;;;;;13.55;4.22;;;;;;;14.89;100.00;102010.38;4983963;28;20049;-70
2023/05/23 06:25:52;;;;;;;10.85;4.45;;;;;;;14.86;100.00;102014.13;5002077;28;20050;-69
2023/05/23 06:28:19;;;;;;;13.80;4.00;;;;;;;14.73;100.00;102013.63;5007390;28;20054;-67
2023/05/23 06:30:45;;;;;;;14.43;4.38;;;;;;;14.61;100.00;102020.91;5001543;28;20069;-68
2023/05/23 06:33:12;;;;;;;14.73;4.22;;;;;;;14.49;100.00;102016.72;5021856;28;20132;-68
2023/05/23 06:35:38;;;;;;;18.88;5.00;;;;;;;14.49;100.00;102025.47;4998086;28;20042;-70
2023/05/23 06:38:05;;;;;;;13.70;4.50;;;;;;;14.49;100.00;102022.00;4998023;28;20069;-67
2023/05/23 06:40:31;;;;;;;13.57;4.60;;;;;;;14.37;100.00;102039.81;5001087;28;20085;-68
2023/05/23 06:42:58;;;;;;;12.77;4.80;;;;;;;14.37;100.00;102029.25;4988453;28;20104;-68
2023/05/23 06:45:25;;;;;;;13.65;4.38;;;;;;;14.34;100.00;102037.44;5006261;28;20116;-67
2023/05/23 06:47:51;;;;;;;14.73;4.63;;;;;;;14.40;100.00;102039.53;5000561;28;20093;-68
2023/05/23 06:50:18;;;;;;;10.43;3.83;;;;;;;14.39;100.00;102043.16;5002026;28;20054;-68
2023/05/23 06:52:48;;;;;;;13.32;4.75;;;;;;;14.39;100.00;102046.63;4994530;28;20053;-68
2023/05/23 06:55:18;;;;;;;10.00;4.00;;;;;;;14.44;100.00;102047.03;5005651;28;20483;-68
2023/05/23 06:57:45;;;;;;;15.48;4.28;;;;;;;14.50;100.00;102048.25;5004962;28;20042;-67
2023/05/23 07:00:12;;;;;;;10.40;4.03;;;;;;;14.61;100.00;102053.41;5010655;28;20064;-67
2023/05/23 07:02:39;;;;;;;11.82;4.05;;;;;;;14.60;100.00;102058.81;5005117;28;20046;-68
2023/05/23 07:05:06;;;;;;;9.88;3.88;;;;;;;14.64;100.00;102049.63;4995717;28;20528;-67
2023/05/23 07:07:32;;;;;;;12.05;4.03;;;;;;;14.67;100.00;102059.09;5001086;28;20045;-67
2023/05/23 07:09:59;;;;;;;13.15;4.10;;;;;;;14.62;100.00;102060.38;4994097;28;20046;-67
2023/05/23 07:12:25;;;;;;;9.52;4.07;;;;;;;14.67;98.98;102059.09;5004234;28;20056;-67
2023/05/23 07:14:52;;;;;;;11.77;4.10;;;;;;;14.66;96.22;102066.16;5000554;28;20082;-69
2023/05/23 07:17:18;;;;;;;15.35;4.80;;;;;;;14.75;93.88;102070.59;5001020;28;20049;-70
2023/05/23 07:19:45;;;;;;;9.30;4.05;;;;;;;14.74;90.84;102068.97;4999159;28;20060;-67
2023/05/23 07:22:11;;;;;;;9.00;3.70;;;;;;;14.87;92.09;102068.63;4981207;28;20160;-72
2023/05/23 07:24:39;;;;;;;9.57;4.10;;;;;;;15.00;90.20;102068.31;4990277;28;20630;-70
2023/05/23 07:27:06;;;;;;;12.32;4.03;;;;;;;15.06;86.95;102066.91;4984139;28;20050;-69
2023/05/23 07:29:32;;;;;;;14.23;4.28;;;;;;;15.12;86.21;102071.59;5008202;28;20135;-69
2023/05/23 07:31:59;;;;;;;12.13;3.72;;;;;;;15.11;86.77;102083.13;4998439;28;20700;-71
2023/05/23 07:34:25;;;;;;;8.65;4.00;;;;;;;15.17;85.50;102071.97;5001978;28;20140;-69
2023/05/23 07:36:52;;;;;;;14.45;3.78;;;;;;;15.12;81.80;102069.78;5006862;28;20045;-68
2023/05/23 07:39:21;;;;;;;9.20;4.03;;;;;;;15.11;82.62;102084.00;5001000;28;20698;-69
2023/05/23 07:41:48;;;;;;;9.35;3.70;;;;;;;15.20;84.67;102082.28;4989830;28;20053;-69
2023/05/23 07:44:15;;;;;;;8.45;3.97;;;;;;;15.24;81.82;102083.63;5001416;28;20077;-69
2023/05/23 07:46:42;;;;;;;12.57;4.40;;;;;;;15.15;82.31;102088.00;5003009;28;20200;-72
2023/05/23 07:49:08;;;;;;;9.88;4.05;;;;;;;15.23;83.59;102087.28;4972060;28;20811;-70
2023/05/23 07:51:35;;;;;;;11.10;4.35;;;;;;;15.32;85.37;102082.91;5005524;28;20508;-69
2023/05/23 07:54:02;;;;;;;8.63;3.75;;;;;;;15.52;85.60;102092.38;4985287;28;20136;-72
2023/05/23 07:56:28;;;;;;;9.48;4.00;;;;;;;15.65;81.74;102093.88;4994803;28;20755;-70
2023/05/23 07:58:55;;;;;;;15.98;3.75;;;;;;;15.81;78.67;102099.34;4998193;28;20050;-68
2023/05/23 08:01:23;;;;;;;10.20;3.40;;;;;;;15.84;77.85;102095.56;4986089;28;20054;-69
2023/05/23 08:03:50;;;;;;;;;;;;;;;15.96;81.84;102105.78;5004041;28;20131;-70
2023/05/23 08:06:16;;;;;;;12.07;3.58;;;;;;;16.08;81.80;102105.56;4998838;28;20313;-69
2023/05/23 08:08:43;;;;;;;9.90;3.65;;;;;;;16.11;82.72;102106.13;4986974;28;20078;-68
2023/05/23 08:11:11;;;;;;;9.48;3.38;;;;;;;16.20;80.67;102113.13;5000190;28;20053;-71
2023/05/23 08:13:37;;;;;;;8.20;2.63;;;;;;;16.00;79.10;102109.81;4998516;28;20073;-69
2023/05/23 08:16:04;;;;;;;6.95;3.20;;;;;;;16.09;83.78;102112.53;5005456;28;20100;-69
2023/05/23 08:18:30;;;;;;;10.45;2.78;;;;;;;16.05;83.05;102119.94;4999483;28;20053;-68
2023/05/23 08:20:57;;;;;;;7.22;2.70;;;;;;;16.04;81.74;102120.94;5020479;28;20494;-69
2023/05/23 08:23:24;;;;;;;7.68;2.50;;;;;;;15.97;81.21;102122.50;4994000;28;20133;-70
2023/05/23 08:25:51;;;;;;;7.05;2.17;;;;;;;16.02;82.11;102122.88;5001019;28;20092;-69
2023/05/23 08:28:17;;;;;;;5.20;2.33;;;;;;;16.03;83.43;102127.19;5017953;28;20088;-70
2023/05/23 08:30:44;;;;;;;7.15;2.05;;;;;;;16.08;79.78;102134.69;5006297;28;20054;-68
2023/05/23 08:33:11;;;;;;;11.00;2.53;;;;;;;16.26;79.78;102134.69;5007775;28;20168;-68
2023/05/23 08:35:38;;;;;;;5.82;1.88;;;;;;;16.45;78.07;102139.81;5002265;28;20081;-69
2023/05/23 08:38:08;;;;;;;7.10;1.92;;;;;;;16.76;74.36;102140.22;5002532;28;20583;-69
2023/05/23 08:40:35;;;;;;;8.38;2.15;;;;;;;17.11;75.89;102149.09;4998840;28;20065;-69
2023/05/23 08:43:02;;;;;;;10.38;2.33;;;;;;;17.23;72.03;102143.50;5008727;28;20112;-69
2023/05/23 08:45:29;;;;;;;12.73;2.35;;;;;;;17.25;69.51;102133.56;5007426;28;20053;-70
2023/05/23 08:48:00;;;;;;;9.40;2.63;;;;;;;17.41;71.67;102132.84;5002240;28;20044;-69
2023/05/23 08:50:28;;;;;;;8.95;2.28;;;;;;;17.54;70.83;102130.53;5008194;28;20068;-70
2023/05/23 08:52:57;;;;;;;9.50;2.00;;;;;;;17.54;68.60;102136.69;4996464;28;20081;-69
2023/05/23 08:55:26;;;;;;;;;;;;;;;17.58;69.04;102147.78;5006074;28;20794;-68
2023/05/23 08:57:59;;;;;;;10.82;2.38;;;;;;;17.41;69.14;102151.41;5001800;28;19927;-68
2023/05/23 09:00:26;;;;;;;10.90;2.63;;;;;;;17.30;69.60;102145.38;5008581;28;20050;-69
2023/05/23 09:02:53;;;;;;;16.80;3.10;;;;;;;17.02;68.87;102150.03;5001942;28;20398;-68
2023/05/23 09:05:20;;;;;;;18.55;2.88;;;;;;;17.19;69.58;102153.63;5002913;28;20045;-69
2023/05/23 09:07:50;;;;;;;10.38;2.55;;;;;;;17.15;69.10;102152.25;5009114;28;20049;-68
2023/05/23 09:10:21;;;;;;;14.38;3.00;;;;;;;17.13;68.53;102156.88;4990239;28;20072;-69
2023/05/23 09:12:48;;;;;;;10.02;2.75;;;;;;;17.20;69.89;102152.63;5003912;28;20069;-70
2023/05/23 09:15:15;;;;;;;10.68;2.50;;;;;;;17.19;66.19;102159.75;5000508;28;20069;-69
2023/05/23 09:17:43;;;;;;;9.90;2.15;;;;;;;17.32;65.71;102163.78;5008124;28;20104;-69
2023/05/23 09:20:14;;;;;;;9.68;2.47;;;;;;;17.36;66.30;102165.13;4997550;28;20058;-69
2023/05/23 09:22:47;;;;;;;10.05;2.20;;;;;;;17.43;64.05;102173.28;4986353;28;20061;-70
2023/05/23 09:25:14;;;;;;;11.45;2.60;;;;;;;17.39;63.59;102175.41;5007394;28;20120;-69
2023/05/23 09:27:42;;;;;;;14.32;3.03;;;;;;;17.53;63.37;102164.19;5001513;28;20136;-72
2023/05/23 09:30:12;;;;;;;9.75;3.10;;;;;;;17.88;64.22;102173.00;4990381;28;20058;-69
2023/05/23 09:32:39;;;;;;;11.43;2.65;;;;;;;17.97;62.35;102169.38;4999064;28;20148;-69
2023/05/23 09:35:06;;;;;;;12.55;2.45;;;;;;;18.02;60.67;102174.19;5000942;28;20058;-69
2023/05/23 09:37:38;;;;;;;13.83;2.57;;;;;;;18.11;61.28;102162.59;4999083;28;20996;-69
2023/05/23 09:40:08;;;;;;;10.48;2.20;;;;;;;18.70;62.94;102170.41;5006684;28;20053;-71
2023/05/23 09:42:41;;;;;;;15.38;3.08;;;;;;;18.97;59.94;102163.09;5006909;28;20697;-68
2023/05/23 09:45:09;;;;;;;16.17;2.80;;;;;;;19.12;59.51;102166.72;4988481;28;20136;-69
2023/05/23 09:47:36;;;;;;;11.60;2.35;;;;;;;19.29;58.49;102172.00;4998214;28;20042;-69
2023/05/23 09:50:03;;;;;;;9.05;2.70;;;;;;;19.26;56.19;102175.81;4998174;28;20567;-69
2023/05/23 09:52:39;;;;;;;15.80;2.67;;;;;;;19.54;55.12;102172.72;5006772;28;20108;-69
2023/05/23 09:55:06;;;;;;;14.25;2.72;;;;;;;19.74;55.92;102167.84;5000865;28;20050;-69
2023/05/23 09:57:40;;;;;;;11.05;2.47;;;;;;;19.60;56.09;102166.72;5006474;28;20052;-69
2023/05/23 10:00:10;;;;;;;16.20;2.78;;;;;;;19.79;55.43;102169.97;5002348;28;20053;-69
2023/05/23 10:02:52;;;;;;;12.00;2.92;;;;;;;19.97;55.48;102172.38;5000545;28;20520;-70
2023/05/23 10:05:43;;;;;;;11.88;2.80;;;;;;;19.94;54.51;102177.03;5003045;28;20121;-70
2023/05/23 10:08:25;;;;;;;10.07;2.22;;;;;;;20.05;55.05;102169.66;5011684;28;20056;-70
2023/05/23 10:10:54;;;;;;;14.13;3.10;;;;;;;20.26;53.71;102169.00;5004257;28;20056;-69
2023/05/23 10:13:25;;;;;;;10.68;2.45;;;;;;;20.24;53.55;102181.69;5016230;28;20050;-69
2023/05/23 10:15:59;;;;;;;12.77;2.85;;;;;;;20.07;51.53;102167.63;4991326;28;20061;-69
2023/05/23 10:18:28;;;;;;;12.23;3.00;;;;;;;19.80;52.88;102167.16;4995498;28;20059;-69
2023/05/23 10:20:58;;;;;;;13.43;3.03;;;;;;;19.98;53.52;102180.19;5006987;28;20056;-69
2023/05/23 10:23:27;;;;;;;11.95;2.80;;;;;;;20.12;52.05;102171.44;4986239;28;20133;-69
2023/05/23 10:25:54;;;;;;;12.55;3.13;;;;;;;20.12;50.07;102176.75;5008863;28;20085;-70
2023/05/23 10:28:21;;;;;;;9.90;3.03;;;;;;;20.50;50.43;102168.84;4999782;28;20144;-73
2023/05/23 10:30:47;;;;;;;13.20;2.83;;;;;;;20.67;49.79;102168.72;4996880;28;20618;-70
2023/05/23 10:33:15;;;;;;;10.73;2.60;;;;;;;20.63;49.09;102168.25;5006651;28;20053;-69
2023/05/23 10:35:45;;;;;;;;;;;;;;;20.80;51.12;102168.13;4983327;28;20053;-70
2023/05/23 10:38:31;;;;;;;10.48;2.67;;;;;;;20.92;50.94;102163.97;5009889;28;19984;-69
2023/05/23 10:41:08;;;;;;;14.18;3.05;;;;;;;20.94;49.51;102169.97;4999409;28;20065;-69
2023/05/23 10:44:01;;;;;;;6.57;2.38;;;;;;;20.48;48.87;102170.84;4991467;28;20146;-70
2023/05/23 10:46:51;;;;;;;9.75;2.30;;;;;;;20.50;50.57;102173.31;4979612;28;20056;-69
2023/05/23 10:49:18;;;;;;;9.45;2.65;;;;;;;20.62;49.83;102176.41;5007070;28;20050;-70
2023/05/23 10:51:52;;;;;;;11.68;3.08;;;;;;;20.54;47.99;102177.28;5001099;28;20876;-69
2023/05/23 10:54:19;;;;;;;10.48;2.83;;;;;;;20.89;49.44;102170.50;5006766;28;20077;-69
2023/05/23 10:56:46;;;;;;;13.00;3.10;;;;;;;21.05;50.59;102174.84;4985646;28;20394;-69
2023/05/23 10:59:23;;;;;;;13.68;2.97;;;;;;;20.70;49.89;102169.19;4978750;28;20107;-69
2023/05/23 11:01:51;;;;;;;6.40;2.55;;;;;;;20.70;49.51;102174.53;5006255;28;20064;-70
2023/05/23 11:04:24;;;;;;;;;;;;;;;20.73;50.80;102179.47;5006986;28;20050;-69
2023/05/23 11:06:53;;;;;;;9.27;2.53;;;;;;;20.63;50.53;102175.41;5005921;28;20052;-68
2023/05/23 11:09:20;;;;;;;12.65;2.83;;;;;;;20.74;50.58;102170.47;4999409;28;20057;-68
2023/05/23 11:12:06;;;;;;;9.05;2.58;;;;;;;20.96;50.68;102172.44;4997757;28;20052;-70
2023/05/23 11:14:33;;;;;;;10.00;3.00;;;;;;;20.81;50.19;102169.75;4992230;28;20128;-69
2023/05/23 11:17:15;;;;;;;13.00;2.33;;;;;;;21.05;48.45;102169.50;5005656;28;20057;-69
2023/05/23 11:20:01;;;;;;;10.07;2.80;;;;;;;21.16;49.06;102175.41;4982822;28;20104;-68